Terminal Aerodrome Forecast
Issued by NWS Kansas City/Pleasant Hill, MO

Home | Current Version | Previous Version | Text Only | Print | Product List | Glossary On
Versions: 1 2 3 4 5 6 7 8 9 10 11 12 13 14 15 16 17 18 19
000
FTUS43 KEAX 242300
TAFMCI
TAF
KMCI 242333Z 2500/2524 22006KT P6SM VCSH SCT022 OVC060
     FM250200 22006KT 6SM -SHRA BKN022
     FM250800 21006KT P6SM VCSH BKN012
     FM251400 18010KT P6SM SCT015 BKN050=

USA.gov is the U.S. government's official web portal to all federal, state and local government web resources and services.